createdAt,value
2023-06-19T00:00:22.504Z,99603.53
2023-06-19T00:02:50.569Z,99598.06
2023-06-19T00:05:18.252Z,99599.97
2023-06-19T00:07:45.779Z,99603.75
2023-06-19T00:10:13.499Z,99605.44
2023-06-19T00:12:40.937Z,99603.75
2023-06-19T00:15:10.739Z,99597.44
2023-06-19T00:17:38.719Z,99602.91
2023-06-19T00:20:06.856Z,99602.91
2023-06-19T00:22:34.488Z,99600.44
2023-06-19T00:25:02.222Z,99601.28
2023-06-19T00:27:29.720Z,99602.91
2023-06-19T00:30:02.768Z,99599.38
2023-06-19T00:32:33.184Z,99602.09
2023-06-19T00:35:02.089Z,99603.19
2023-06-19T00:37:33.323Z,99601.53
2023-06-19T00:40:00.870Z,99594.97
2023-06-19T00:42:28.455Z,99599.63
2023-06-19T00:44:56.198Z,99598.81
2023-06-19T00:47:23.829Z,99599.63
2023-06-19T00:49:52.063Z,99604.28
2023-06-19T00:52:19.972Z,99594.41
2023-06-19T00:54:47.412Z,99603.44
2023-06-19T00:57:14.894Z,99601.75
2023-06-19T00:59:42.588Z,99599.88
2023-06-19T01:02:10.331Z,99609.97
2023-06-19T01:04:37.975Z,99595.47
2023-06-19T01:07:14.814Z,99596.28
2023-06-19T01:10:04.954Z,99598.19
2023-06-19T01:12:38.627Z,99593.31
2023-06-19T01:15:08.134Z,99589.19
2023-06-19T01:17:36.739Z,99587.53
2023-06-19T01:20:11.723Z,99586.69
2023-06-19T01:22:39.921Z,99588.34
2023-06-19T01:25:08.062Z,99586.69
2023-06-19T01:27:37.250Z,99592.16
2023-06-19T01:30:05.549Z,99593.25
2023-06-19T01:32:36.647Z,99590.25
2023-06-19T01:35:04.351Z,99582.31
2023-06-19T01:37:34.442Z,99585.06
2023-06-19T01:40:02.974Z,99583.13
2023-06-19T01:42:32.772Z,99570.69
2023-06-19T01:45:01.417Z,99570.28
2023-06-19T01:47:28.944Z,99570.78
2023-06-19T01:49:56.393Z,99568.31
2023-06-19T01:52:25.772Z,99566.87
2023-06-19T01:54:53.281Z,99558.69
2023-06-19T01:57:23.180Z,99564.16
2023-06-19T01:59:50.954Z,99565.22
2023-06-19T02:02:18.521Z,99558.59
2023-06-19T02:04:46.232Z,99569.81
2023-06-19T02:07:13.668Z,99571.97
2023-06-19T02:09:42.155Z,99569.47
2023-06-19T02:12:10.162Z,99568.91
2023-06-19T02:14:37.650Z,99576.78
2023-06-19T02:17:05.182Z,99575.94
2023-06-19T02:19:33.005Z,99581.66
2023-06-19T02:22:00.427Z,99572.03
2023-06-19T02:24:27.915Z,99588.44
2023-06-19T02:26:55.691Z,99575.88
2023-06-19T02:29:25.695Z,99581.34
2023-06-19T02:31:53.177Z,99577.19
2023-06-19T02:34:20.975Z,99578.53
2023-06-19T02:36:48.471Z,99573.28
2023-06-19T02:39:16.683Z,99581.75
2023-06-19T02:41:46.978Z,99576.53
2023-06-19T02:44:14.889Z,99578.66
2023-06-19T02:46:44.757Z,99585.16
2023-06-19T02:49:12.470Z,99587.69
2023-06-19T02:51:42.203Z,99584.66
2023-06-19T02:54:09.795Z,99590.34
2023-06-19T02:56:38.001Z,99588.03
2023-06-19T02:59:05.658Z,99590.09
2023-06-19T03:01:33.319Z,99587.25
2023-06-19T03:04:01.202Z,99589.13
2023-06-19T03:06:29.262Z,99582.03
2023-06-19T03:08:57.697Z,99586.91
2023-06-19T03:11:25.476Z,99586.09
2023-06-19T03:13:53.736Z,99588.81
2023-06-19T03:16:21.828Z,99590.72
2023-06-19T03:18:52.907Z,99598.06
2023-06-19T03:21:21.415Z,99596.19
2023-06-19T03:23:49.788Z,99606.28
2023-06-19T03:26:18.979Z,99596.44
2023-06-19T03:28:48.218Z,99593.69
2023-06-19T03:31:16.184Z,99601.88
2023-06-19T03:33:44.310Z,99603.78
2023-06-19T03:36:11.917Z,99601.81
2023-06-19T03:38:40.175Z,99594.94
2023-06-19T03:41:09.116Z,99607.53
2023-06-19T03:43:37.106Z,99613.81
2023-06-19T03:46:04.952Z,99606.69
2023-06-19T03:48:32.784Z,99605.88
2023-06-19T03:51:00.418Z,99608.59
2023-06-19T03:53:28.843Z,99615.13
2023-06-19T03:55:56.864Z,99602.78
2023-06-19T03:58:24.452Z,99602.78
2023-06-19T04:00:53.176Z,99611.81
2023-06-19T04:03:21.358Z,99611.56
2023-06-19T04:05:48.988Z,99601.72
2023-06-19T04:08:17.100Z,99603.63
2023-06-19T04:10:44.992Z,99613.47
2023-06-19T04:13:13.014Z,99606.34
2023-06-19T04:15:40.570Z,99609.91
2023-06-19T04:18:08.430Z,99611.81
2023-06-19T04:20:38.308Z,99604.44
2023-06-19T04:23:05.843Z,99608.81
2023-06-19T04:25:33.543Z,99611.56
2023-06-19T04:28:01.024Z,99609.91
2023-06-19T04:30:28.490Z,99615.94
2023-06-19T04:32:56.306Z,99605.88
2023-06-19T04:35:24.852Z,99615.72
2023-06-19T04:37:52.424Z,99613.56
2023-06-19T04:40:20.160Z,99611.66
2023-06-19T04:42:47.620Z,99608.69
2023-06-19T04:45:15.120Z,99613.91
2023-06-19T04:47:53.223Z,99616.38
2023-06-19T04:50:22.750Z,99612.59
2023-06-19T04:52:51.639Z,99606.88
2023-06-19T04:55:19.807Z,99606.63
2023-06-19T04:57:47.313Z,99602.22
2023-06-19T05:00:16.296Z,99611.50
2023-06-19T05:02:46.047Z,99613.41
2023-06-19T05:05:14.180Z,99618.88
2023-06-19T05:07:42.037Z,99614.00
2023-06-19T05:10:10.053Z,99626.81
2023-06-19T05:12:37.534Z,99617.81
2023-06-19T05:15:05.622Z,99626.00
2023-06-19T05:17:33.199Z,99632.56
2023-06-19T05:20:00.816Z,99631.72
2023-06-19T05:22:28.758Z,99625.19
2023-06-19T05:24:56.237Z,99635.28
2023-06-19T05:27:23.677Z,99635.84
2023-06-19T05:29:51.427Z,99639.41
2023-06-19T05:32:18.884Z,99639.66
2023-06-19T05:34:46.397Z,99640.22
2023-06-19T05:37:14.149Z,99643.78
2023-06-19T05:39:41.614Z,99649.25
2023-06-19T05:42:09.093Z,99647.38
2023-06-19T05:44:36.883Z,99648.44
2023-06-19T05:47:04.500Z,99646.53
2023-06-19T05:49:32.002Z,99644.66
2023-06-19T05:52:00.302Z,99647.38
2023-06-19T05:54:27.944Z,99649.03
2023-06-19T05:56:55.452Z,99656.41
2023-06-19T05:59:23.173Z,99653.69
2023-06-19T06:01:51.857Z,99657.22
2023-06-19T06:04:22.962Z,99656.41
2023-06-19T06:06:50.565Z,99656.19
2023-06-19T06:09:18.101Z,99658.09
2023-06-19T06:11:46.082Z,99659.13
2023-06-19T06:14:13.755Z,99654.50
2023-06-19T06:16:41.285Z,99665.44
2023-06-19T06:19:09.063Z,99663.56
2023-06-19T06:21:36.486Z,99665.44
2023-06-19T06:24:04.180Z,99670.91
2023-06-19T06:26:32.355Z,99670.06
2023-06-19T06:28:59.898Z,99669.03
2023-06-19T06:31:27.358Z,99663.56
2023-06-19T06:33:55.067Z,99663.56
2023-06-19T06:36:35.414Z,99667.13
2023-06-19T06:39:03.848Z,99674.22
2023-06-19T06:41:31.345Z,99676.97
2023-06-19T06:43:58.809Z,99670.41
2023-06-19T06:46:26.570Z,99673.16
2023-06-19T06:48:54.157Z,99671.28
2023-06-19T06:51:23.279Z,99672.94
2023-06-19T06:53:51.852Z,99674.84
2023-06-19T06:56:19.348Z,99671.03
2023-06-19T06:58:48.153Z,99677.31
2023-06-19T07:01:16.054Z,99665.31
2023-06-19T07:03:43.710Z,99678.72
2023-06-19T07:06:11.237Z,99674.31
2023-06-19T07:08:41.828Z,99684.19
2023-06-19T07:11:09.310Z,99680.63
2023-06-19T07:13:36.767Z,99673.25
2023-06-19T07:16:06.121Z,99674.09
2023-06-19T07:18:35.030Z,99668.38
2023-06-19T07:21:03.611Z,99669.78
2023-06-19T07:23:31.309Z,99668.13
2023-06-19T07:25:59.055Z,99677.16
2023-06-19T07:28:26.567Z,99679.66
2023-06-19T07:30:54.311Z,99666.00
2023-06-19T07:33:21.775Z,99667.63
2023-06-19T07:35:49.231Z,99667.63
2023-06-19T07:38:17.657Z,99664.91
2023-06-19T07:40:45.253Z,99670.12
2023-06-19T07:43:12.705Z,99668.22
2023-06-19T07:45:40.493Z,99668.81
2023-06-19T07:48:08.040Z,99672.38
2023-06-19T07:50:35.487Z,99672.38
2023-06-19T07:53:03.223Z,99672.94
2023-06-19T07:55:30.746Z,99674.03
2023-06-19T07:57:58.251Z,99664.75
2023-06-19T08:00:26.369Z,99667.25
2023-06-19T08:02:54.473Z,99668.06
2023-06-19T08:05:22.203Z,99672.72
2023-06-19T08:07:49.653Z,99668.91
2023-06-19T08:10:17.413Z,99663.44
2023-06-19T08:12:45.274Z,99665.09
2023-06-19T08:15:14.827Z,99668.91
2023-06-19T08:17:42.971Z,99664.00
2023-06-19T08:20:10.986Z,99668.59
2023-06-19T08:22:38.563Z,99666.00
2023-06-19T08:25:06.693Z,99671.16
2023-06-19T08:27:34.183Z,99668.41
2023-06-19T08:30:01.657Z,99667.34
2023-06-19T08:32:31.618Z,99670.06
2023-06-19T08:34:59.178Z,99664.09
2023-06-19T08:37:26.615Z,99664.09
2023-06-19T08:39:54.388Z,99672.06
2023-06-19T08:42:21.852Z,99667.41
2023-06-19T08:44:49.704Z,99676.19
2023-06-19T08:47:17.743Z,99662.50
2023-06-19T08:49:45.267Z,99666.94
2023-06-19T08:52:13.265Z,99674.06
2023-06-19T08:54:45.054Z,99667.50
2023-06-19T08:57:16.017Z,99672.72
2023-06-19T08:59:51.105Z,99670.81
2023-06-19T09:02:18.664Z,99669.75
2023-06-19T09:04:46.470Z,99662.59
2023-06-19T09:07:14.338Z,99667.84
2023-06-19T09:09:46.144Z,99661.53
2023-06-19T09:12:14.470Z,99667.84
2023-06-19T09:14:45.946Z,99670.06
2023-06-19T09:17:18.216Z,99663.75
2023-06-19T09:19:49.497Z,99662.69
2023-06-19T09:22:19.777Z,99661.62
2023-06-19T09:24:47.415Z,99664.34
2023-06-19T09:27:19.049Z,99667.66
2023-06-19T09:29:48.615Z,99660.28
2023-06-19T09:32:23.812Z,99660.06
2023-06-19T09:34:53.260Z,99661.44
2023-06-19T09:37:31.276Z,99658.16
2023-06-19T09:40:10.964Z,99660.63
2023-06-19T09:42:43.716Z,99654.31
2023-06-19T09:45:13.266Z,99645.88
2023-06-19T09:47:47.158Z,99654.91
2023-06-19T09:50:18.389Z,99650.25
2023-06-19T09:52:47.445Z,99658.44
2023-06-19T09:55:14.912Z,99654.00
2023-06-19T09:57:43.182Z,99647.84
2023-06-19T10:00:16.658Z,99647.50
2023-06-19T10:02:45.745Z,99636.56
2023-06-19T10:05:15.567Z,99631.38
2023-06-19T10:07:45.084Z,99629.44
2023-06-19T10:10:23.521Z,99625.88
2023-06-19T10:12:51.640Z,99626.72
2023-06-19T10:15:29.373Z,99628.97
2023-06-19T10:18:04.158Z,99630.88
2023-06-19T10:20:38.435Z,99631.97
2023-06-19T10:23:20.633Z,99618.50
2023-06-19T10:25:50.408Z,99621.00
2023-06-19T10:28:31.564Z,99623.50
2023-06-19T10:31:00.576Z,99607.91
2023-06-19T10:33:30.231Z,99616.09
2023-06-19T10:35:57.848Z,99612.28
2023-06-19T10:38:25.329Z,99615.84
2023-06-19T10:40:53.116Z,99612.28
2023-06-19T10:43:31.870Z,99619.19
2023-06-19T10:46:00.375Z,99620.84
2023-06-19T10:48:27.842Z,99613.72
2023-06-19T10:50:57.402Z,99608.25
2023-06-19T10:53:26.981Z,99613.72
2023-06-19T10:56:01.653Z,99615.09
2023-06-19T10:58:29.676Z,99609.41
2023-06-19T11:00:58.095Z,99604.75
2023-06-19T11:03:25.762Z,99610.22
2023-06-19T11:05:53.686Z,99608.06
2023-06-19T11:08:22.528Z,99604.50
2023-06-19T11:10:50.376Z,99603.66
2023-06-19T11:13:21.226Z,99600.94
2023-06-19T11:15:50.610Z,99600.94
2023-06-19T11:18:18.809Z,99595.47
2023-06-19T11:20:53.117Z,99593.56
2023-06-19T11:23:30.801Z,99597.97
2023-06-19T11:26:04.921Z,99603.44
2023-06-19T11:28:32.654Z,99596.28
2023-06-19T11:31:02.210Z,99600.09
2023-06-19T11:33:30.582Z,99595.72
2023-06-19T11:36:00.926Z,99592.72
2023-06-19T11:38:28.690Z,99590.25
2023-06-19T11:40:57.007Z,99587.50
2023-06-19T11:43:29.038Z,99592.97
2023-06-19T11:46:03.922Z,99582.28
2023-06-19T11:48:32.631Z,99582.03
2023-06-19T11:51:00.273Z,99581.44
2023-06-19T11:53:27.948Z,99573.25
2023-06-19T11:55:56.311Z,99575.97
2023-06-19T11:58:23.845Z,99575.97
2023-06-19T12:00:51.388Z,99573.25
2023-06-19T12:03:19.248Z,99577.88
2023-06-19T12:05:46.979Z,99575.16
2023-06-19T12:08:14.493Z,99579.53
2023-06-19T12:10:42.624Z,99572.16
2023-06-19T12:13:10.135Z,99576.81
2023-06-19T12:15:38.133Z,99571.09
2023-06-19T12:18:08.317Z,99566.69
2023-06-19T12:20:35.762Z,99570.28
2023-06-19T12:23:03.616Z,99560.31
2023-06-19T12:25:31.365Z,99562.62
2023-06-19T12:27:58.803Z,99549.22
2023-06-19T12:30:26.523Z,99553.88
2023-06-19T12:32:54.538Z,99553.88
2023-06-19T12:35:23.315Z,99553.00
2023-06-19T12:37:50.837Z,99556.59
2023-06-19T12:40:18.941Z,99540.75
2023-06-19T12:42:47.359Z,99547.03
2023-06-19T12:45:14.928Z,99543.47
2023-06-19T12:47:42.663Z,99545.13
2023-06-19T12:50:11.476Z,99539.09
2023-06-19T12:52:38.973Z,99541.56
2023-06-19T12:55:06.999Z,99536.09
2023-06-19T12:57:34.514Z,99530.41
2023-06-19T13:00:02.036Z,99534.00
2023-06-19T13:02:30.280Z,99532.06
2023-06-19T13:04:59.383Z,99528.25
2023-06-19T13:07:26.926Z,99525.50
2023-06-19T13:09:54.666Z,99533.47
2023-06-19T13:12:23.354Z,99525.25
2023-06-19T13:14:50.838Z,99522.19
2023-06-19T13:17:18.637Z,99521.97
2023-06-19T13:19:46.223Z,99516.72
2023-06-19T13:22:13.733Z,99512.94
2023-06-19T13:24:41.503Z,99507.69
2023-06-19T13:27:08.996Z,99515.91
2023-06-19T13:29:36.447Z,99512.94
2023-06-19T13:32:04.446Z,99518.41
2023-06-19T13:34:32.216Z,99521.13
2023-06-19T13:36:59.672Z,99520.31
2023-06-19T13:39:27.441Z,99523.03
2023-06-19T13:41:54.882Z,99513.97
2023-06-19T13:44:22.316Z,99518.63
2023-06-19T13:46:50.424Z,99511.25
2023-06-19T13:49:18.052Z,99513.16
2023-06-19T13:51:45.484Z,99507.69
2023-06-19T13:54:14.320Z,99515.91
2023-06-19T13:56:41.903Z,99511.47
2023-06-19T13:59:09.672Z,99510.66
2023-06-19T14:01:37.454Z,99513.37
2023-06-19T14:04:05.392Z,99508.75
2023-06-19T14:06:32.899Z,99516.13
2023-06-19T14:09:00.341Z,99518.63
2023-06-19T14:11:30.211Z,99510.41
2023-06-19T14:13:57.870Z,99512.09
2023-06-19T14:16:25.419Z,99503.91
2023-06-19T14:18:53.249Z,99499.25
2023-06-19T14:21:20.754Z,99503.38
2023-06-19T14:23:48.278Z,99504.44
2023-06-19T14:26:16.045Z,99498.97
2023-06-19T14:28:43.556Z,99500.38
2023-06-19T14:31:11.019Z,99502.53
2023-06-19T14:33:39.065Z,99496.25
2023-06-19T14:36:06.623Z,99498.16
2023-06-19T14:38:35.190Z,99503.38
2023-06-19T14:41:03.424Z,99504.44
2023-06-19T14:43:33.614Z,99504.19
2023-06-19T14:46:01.680Z,99499.81
2023-06-19T14:48:31.497Z,99503.38
2023-06-19T14:50:59.206Z,99503.09
2023-06-19T14:53:26.997Z,99507.50
2023-06-19T14:55:54.721Z,99497.63
2023-06-19T14:58:22.276Z,99505.00
2023-06-19T15:00:49.711Z,99501.44
2023-06-19T15:03:17.665Z,99498.47
2023-06-19T15:05:45.409Z,99490.50
2023-06-19T15:08:12.917Z,99493.25
2023-06-19T15:10:40.697Z,99490.50
2023-06-19T15:13:10.613Z,99494.91
2023-06-19T15:15:38.144Z,99486.25
2023-06-19T15:18:08.167Z,99489.19
2023-06-19T15:20:35.714Z,99490.28
2023-06-19T15:23:03.240Z,99485.88
2023-06-19T15:25:31.021Z,99490.50
2023-06-19T15:27:58.513Z,99493.00
2023-06-19T15:30:26.385Z,99498.22
2023-06-19T15:32:54.551Z,99486.44
2023-06-19T15:35:22.452Z,99484.81
2023-06-19T15:37:49.936Z,99490.84
2023-06-19T15:40:17.677Z,99488.38
2023-06-19T15:42:45.240Z,99493.00
2023-06-19T15:45:14.181Z,99487.28
2023-06-19T15:47:41.964Z,99490.28
2023-06-19T15:50:11.074Z,99483.72
2023-06-19T15:52:38.560Z,99493.00
2023-06-19T15:55:06.775Z,99493.00
2023-06-19T15:57:34.362Z,99487.78
2023-06-19T16:00:01.877Z,99486.94
2023-06-19T16:02:29.949Z,99485.88
2023-06-19T16:04:57.835Z,99482.31
2023-06-19T16:07:25.341Z,99487.53
2023-06-19T16:09:55.605Z,99490.28
2023-06-19T16:12:23.875Z,99486.44
2023-06-19T16:14:51.336Z,99489.19
2023-06-19T16:17:18.819Z,99492.75
2023-06-19T16:19:46.573Z,99487.28
2023-06-19T16:22:14.577Z,99485.38
2023-06-19T16:24:42.623Z,99484.53
2023-06-19T16:27:10.641Z,99488.09
2023-06-19T16:29:38.092Z,99487.28
2023-06-19T16:32:10.200Z,99485.38
2023-06-19T16:34:38.605Z,99483.44
2023-06-19T16:37:06.276Z,99492.47
2023-06-19T16:39:33.835Z,99491.94
2023-06-19T16:42:01.660Z,99493.56
2023-06-19T16:44:29.179Z,99485.38
2023-06-19T16:46:56.988Z,99488.09
2023-06-19T16:49:24.834Z,99491.66
2023-06-19T16:51:52.314Z,99496.31
2023-06-19T16:54:19.802Z,99494.66
2023-06-19T16:56:47.557Z,99502.59
2023-06-19T16:59:15.090Z,99500.69
2023-06-19T17:01:43.334Z,99497.97
2023-06-19T17:04:11.204Z,99494.12
2023-06-19T17:06:38.656Z,99500.19
2023-06-19T17:09:06.153Z,99491.16
2023-06-19T17:11:33.904Z,99492.00
2023-06-19T17:14:01.345Z,99493.62
2023-06-19T17:16:28.848Z,99492.53
2023-06-19T17:18:56.784Z,99492.81
2023-06-19T17:21:24.235Z,99496.38
2023-06-19T17:23:52.766Z,99487.34
2023-06-19T17:26:20.538Z,99488.16
2023-06-19T17:28:48.235Z,99490.06
2023-06-19T17:31:15.715Z,99490.91
2023-06-19T17:33:43.438Z,99495.53
2023-06-19T17:36:11.225Z,99498.28
2023-06-19T17:38:39.365Z,99502.66
2023-06-19T17:41:07.934Z,99502.66
2023-06-19T17:43:35.542Z,99508.97
2023-06-19T17:46:03.043Z,99505.41
2023-06-19T17:48:30.833Z,99502.44
2023-06-19T17:50:58.536Z,99504.31
2023-06-19T17:53:26.014Z,99515.25
2023-06-19T17:55:53.735Z,99516.94
2023-06-19T17:58:22.651Z,99516.66
2023-06-19T18:00:50.152Z,99509.56
2023-06-19T18:03:17.964Z,99512.84
2023-06-19T18:05:45.514Z,99520.56
2023-06-19T18:08:13.000Z,99518.66
2023-06-19T18:10:40.810Z,99519.47
2023-06-19T18:13:08.726Z,99520.56
2023-06-19T18:15:36.218Z,99520.28
2023-06-19T18:18:04.141Z,99523.63
2023-06-19T18:20:31.650Z,99522.78
2023-06-19T18:22:59.117Z,99528.00
2023-06-19T18:25:26.911Z,99532.66
2023-06-19T18:27:54.410Z,99533.22
2023-06-19T18:30:22.158Z,99534.88
2023-06-19T18:32:50.057Z,99524.78
2023-06-19T18:35:17.553Z,99532.72
2023-06-19T18:37:45.034Z,99541.75
2023-06-19T18:40:12.963Z,99535.19
2023-06-19T18:42:42.118Z,99537.09
2023-06-19T18:45:10.014Z,99535.19
2023-06-19T18:47:37.967Z,99543.16
2023-06-19T18:50:06.594Z,99537.69
2023-06-19T18:52:34.067Z,99544.81
2023-06-19T18:55:01.970Z,99537.69
2023-06-19T18:57:29.575Z,99547.56
2023-06-19T18:59:58.028Z,99552.19
2023-06-19T19:02:26.817Z,99552.19
2023-06-19T19:04:55.585Z,99554.13
2023-06-19T19:07:23.741Z,99562.31
2023-06-19T19:09:51.960Z,99559.59
2023-06-19T19:12:19.379Z,99565.28
2023-06-19T19:14:46.810Z,99557.91
2023-06-19T19:17:14.563Z,99562.31
2023-06-19T19:19:42.010Z,99564.78
2023-06-19T19:22:09.539Z,99567.53
2023-06-19T19:24:37.798Z,99577.66
2023-06-19T19:27:05.904Z,99574.66
2023-06-19T19:29:33.512Z,99576.56
2023-06-19T19:32:01.280Z,99581.78
2023-06-19T19:34:28.828Z,99580.47
2023-06-19T19:36:57.366Z,99574.97
2023-06-19T19:39:25.171Z,99579.38
2023-06-19T19:41:52.603Z,99581.03
2023-06-19T19:44:20.075Z,99579.94
2023-06-19T19:46:47.849Z,99590.88
2023-06-19T19:49:15.282Z,99590.88
2023-06-19T19:51:42.980Z,99593.38
2023-06-19T19:54:10.887Z,99598.59
2023-06-19T19:56:38.425Z,99592.28
2023-06-19T19:59:06.062Z,99595.03
2023-06-19T20:01:34.001Z,99591.22
2023-06-19T20:04:02.047Z,99602.97
2023-06-19T20:06:30.079Z,99599.41
2023-06-19T20:08:57.591Z,99605.72
2023-06-19T20:11:25.387Z,99602.16
2023-06-19T20:13:53.532Z,99607.63
2023-06-19T20:16:22.396Z,99606.81
2023-06-19T20:18:50.171Z,99601.34
2023-06-19T20:21:17.637Z,99607.41
2023-06-19T20:23:45.210Z,99602.97
2023-06-19T20:26:13.020Z,99609.53
2023-06-19T20:28:41.096Z,99609.53
2023-06-19T20:31:08.650Z,99610.63
2023-06-19T20:33:36.374Z,99612.28
2023-06-19T20:36:03.996Z,99606.25
2023-06-19T20:38:31.441Z,99608.16
2023-06-19T20:41:01.868Z,99609.22
2023-06-19T20:43:29.525Z,99612.78
2023-06-19T20:46:01.319Z,99620.16
2023-06-19T20:48:29.505Z,99615.78
2023-06-19T20:50:58.425Z,99619.34
2023-06-19T20:53:27.261Z,99625.09
2023-06-19T20:55:55.082Z,99622.34
2023-06-19T20:58:28.346Z,99622.34
2023-06-19T21:00:56.238Z,99622.59
2023-06-19T21:03:24.494Z,99635.44
2023-06-19T21:05:52.151Z,99629.13
2023-06-19T21:08:19.866Z,99624.75
2023-06-19T21:10:47.354Z,99630.22
2023-06-19T21:13:22.311Z,99628.56
2023-06-19T21:15:50.772Z,99628.84
2023-06-19T21:18:18.872Z,99625.28
2023-06-19T21:20:46.342Z,99635.37
2023-06-19T21:23:14.206Z,99631.81
2023-06-19T21:25:41.711Z,99635.63
2023-06-19T21:28:09.167Z,99633.72
2023-06-19T21:30:36.879Z,99643.84
2023-06-19T21:33:04.861Z,99642.19
2023-06-19T21:35:32.441Z,99639.72
2023-06-19T21:38:00.206Z,99639.72
2023-06-19T21:40:27.878Z,99646.25
2023-06-19T21:42:55.634Z,99651.72
2023-06-19T21:45:23.470Z,99643.78
2023-06-19T21:47:51.381Z,99637.47
2023-06-19T21:50:20.641Z,99645.69
2023-06-19T21:52:48.509Z,99646.78
2023-06-19T21:55:15.937Z,99650.34
2023-06-19T22:00:15.484Z,99652.25
2023-06-19T22:02:46.449Z,99646.19
2023-06-19T22:05:14.013Z,99649.19
2023-06-19T22:07:41.507Z,99654.66
2023-06-19T22:10:09.968Z,99652.75
2023-06-19T22:12:37.408Z,99653.00
2023-06-19T22:15:05.152Z,99652.19
2023-06-19T22:17:32.988Z,99663.34
2023-06-19T22:20:00.512Z,99668.84
2023-06-19T22:22:27.977Z,99671.56
2023-06-19T22:24:55.744Z,99658.16
2023-06-19T22:27:23.183Z,99665.53
2023-06-19T22:29:50.654Z,99659.22
2023-06-19T22:32:19.982Z,99654.00
2023-06-19T22:34:47.676Z,99663.88
2023-06-19T22:37:17.438Z,99657.31
2023-06-19T22:39:46.725Z,99666.84
2023-06-19T22:42:14.206Z,99675.06
2023-06-19T22:44:41.650Z,99673.41
2023-06-19T22:47:09.419Z,99672.59
2023-06-19T22:49:36.993Z,99672.59
2023-06-19T22:52:04.751Z,99666.50
2023-06-19T22:54:32.484Z,99667.38
2023-06-19T22:57:00.299Z,99665.69
2023-06-19T22:59:27.721Z,99667.59
2023-06-19T23:01:55.463Z,99659.38
2023-06-19T23:04:22.954Z,99660.47
2023-06-19T23:06:52.211Z,99655.25
2023-06-19T23:09:20.092Z,99645.13
2023-06-19T23:11:49.565Z,99651.69
2023-06-19T23:14:17.077Z,99644.56
2023-06-19T23:16:44.898Z,99650.03
2023-06-19T23:19:12.851Z,99652.19
2023-06-19T23:21:40.315Z,99648.63
2023-06-19T23:24:11.604Z,99648.63
2023-06-19T23:26:39.139Z,99642.56
2023-06-19T23:29:08.389Z,99641.75
2023-06-19T23:31:36.997Z,99649.09
2023-06-19T23:34:05.776Z,99640.06
2023-06-19T23:36:33.246Z,99640.06
2023-06-19T23:39:02.102Z,99634.03
2023-06-19T23:41:29.603Z,99621.41
2023-06-19T23:43:57.080Z,99626.87
2023-06-19T23:46:24.850Z,99626.03
2023-06-19T23:48:52.675Z,99632.59
2023-06-19T23:51:20.157Z,99630.94
2023-06-19T23:53:47.913Z,99640.81
2023-06-19T23:56:15.398Z,99640.25
2023-06-19T23:58:42.837Z,99633.94
